Time;durP1;ratioP1;P1;durP2;ratioP2;P2;SDS_P1;SDS_P2;PMS_P1;PMS_P2;Temp;Humidity;BMP_temperature;BMP_pressure;BME280_temperature;BME280_humidity;BME280_pressure;Samples;Min_cycle;Max_cycle;Signal;HPM_P1;HPM_P2
2021/07/08 00:00:21;;;;;;;11.05;6.15;;;;;;;-144.13;100.00;64086.75;5023571;28;20475;-49
2021/07/08 00:02:50;;;;;;;8.95;5.65;;;;;;;-144.13;100.00;64086.75;5025007;28;20103;-49
2021/07/08 00:05:18;;;;;;;6.15;5.13;;;;;;;-144.13;100.00;64086.75;5025707;28;20502;-47
2021/07/08 00:07:44;;;;;;;6.18;4.95;;;;;;;-144.13;100.00;64086.75;5023539;28;20059;-48
2021/07/08 00:10:13;;;;;;;7.25;4.88;;;;;;;-144.13;100.00;64086.75;5021040;28;20148;-48
2021/07/08 00:12:39;;;;;;;6.50;4.75;;;;;;;-144.13;100.00;64086.75;5025063;28;20407;-47
2021/07/08 00:15:09;;;;;;;11.35;5.60;;;;;;;-144.13;100.00;64086.75;5023345;28;20022;-48
2021/07/08 00:17:34;;;;;;;7.53;5.40;;;;;;;-144.13;100.00;64086.75;5022524;28;20029;-48
2021/07/08 00:20:00;;;;;;;6.20;5.30;;;;;;;-144.13;100.00;64086.75;5021911;28;20378;-48
2021/07/08 00:22:26;;;;;;;8.13;4.63;;;;;;;-144.13;100.00;64086.75;5024386;28;20410;-48
2021/07/08 00:24:51;;;;;;;6.50;5.60;;;;;;;-144.13;100.00;64086.75;5020957;28;20024;-47
2021/07/08 00:27:17;;;;;;;5.57;4.97;;;;;;;-144.13;100.00;64086.75;5022549;28;20095;-48
2021/07/08 00:29:42;;;;;;;7.18;5.30;;;;;;;-144.13;100.00;64086.75;5023325;28;20048;-48
2021/07/08 00:32:08;;;;;;;7.75;4.72;;;;;;;-144.13;100.00;64086.75;5023306;28;20022;-47
2021/07/08 00:34:33;;;;;;;10.82;5.70;;;;;;;-144.13;100.00;64086.75;5023968;28;20633;-48
2021/07/08 00:36:58;;;;;;;8.65;5.30;;;;;;;-144.13;100.00;64086.75;5019744;28;20033;-48
2021/07/08 00:39:24;;;;;;;7.45;5.47;;;;;;;-144.13;100.00;64086.75;5022823;28;20104;-47
2021/07/08 00:41:49;;;;;;;9.68;5.03;;;;;;;-144.13;100.00;64086.75;5020382;28;20047;-49
2021/07/08 00:44:15;;;;;;;8.52;4.95;;;;;;;-144.13;100.00;64086.75;5021846;28;20033;-48
2021/07/08 00:46:41;;;;;;;9.15;5.38;;;;;;;-144.13;100.00;64086.75;5018282;28;20030;-48
2021/07/08 00:49:07;;;;;;;8.43;6.05;;;;;;;-144.13;100.00;64086.75;5023645;28;20115;-48
2021/07/08 00:51:32;;;;;;;10.48;6.00;;;;;;;-144.13;100.00;64086.75;5021901;28;20463;-50
2021/07/08 00:53:58;;;;;;;8.27;4.90;;;;;;;-144.13;100.00;64086.75;5023058;28;20029;-46
2021/07/08 00:56:25;;;;;;;8.07;5.53;;;;;;;-144.13;100.00;64086.75;5024973;28;20029;-47
2021/07/08 00:59:05;;;;;;;7.38;5.20;;;;;;;-144.13;100.00;64086.75;5024754;28;20329;-48
2021/07/08 01:01:32;;;;;;;7.63;6.03;;;;;;;-144.13;100.00;64086.75;5023117;28;20468;-47
2021/07/08 01:03:58;;;;;;;7.72;5.60;;;;;;;-144.13;100.00;64086.75;5023401;28;20037;-47
2021/07/08 01:06:26;;;;;;;14.43;6.68;;;;;;;-144.13;100.00;64086.75;5023929;28;20494;-47
2021/07/08 01:08:53;;;;;;;6.97;5.03;;;;;;;-144.13;100.00;64086.75;5019740;28;20607;-47
2021/07/08 01:11:18;;;;;;;8.70;5.75;;;;;;;-144.13;100.00;64086.75;5024346;28;20084;-50
2021/07/08 01:13:44;;;;;;;16.55;5.57;;;;;;;-144.13;100.00;64086.75;5024005;28;20056;-48
2021/07/08 01:16:09;;;;;;;9.02;5.88;;;;;;;-144.13;100.00;64086.75;5023462;28;20029;-48
2021/07/08 01:18:35;;;;;;;13.38;5.63;;;;;;;-144.13;100.00;64086.75;5023049;28;20025;-47
2021/07/08 01:21:32;;;;;;;8.40;5.25;;;;;;;-144.13;100.00;64086.75;5020827;28;20100;-47
2021/07/08 01:23:59;;;;;;;8.38;5.50;;;;;;;-144.13;100.00;64086.75;5013658;28;20041;-47
2021/07/08 01:26:26;;;;;;;8.00;6.13;;;;;;;-144.13;100.00;64086.75;5022520;28;20030;-47
2021/07/08 01:28:53;;;;;;;12.55;6.78;;;;;;;-144.13;100.00;64086.75;5022268;28;20434;-48
2021/07/08 01:31:20;;;;;;;10.57;7.07;;;;;;;-144.13;100.00;64086.75;5021191;28;20515;-47
2021/07/08 01:33:46;;;;;;;7.88;6.28;;;;;;;-144.13;100.00;64086.75;5021722;28;20029;-49
2021/07/08 01:36:12;;;;;;;13.02;6.63;;;;;;;-144.13;100.00;64086.75;5021902;28;20036;-48
2021/07/08 01:38:38;;;;;;;8.18;5.90;;;;;;;-144.13;100.00;64086.75;5022003;28;20035;-48
2021/07/08 01:41:04;;;;;;;10.43;6.18;;;;;;;-144.13;100.00;64086.75;5020081;28;20108;-47
2021/07/08 01:43:37;;;;;;;10.60;5.80;;;;;;;-144.13;100.00;64086.75;5017673;28;20443;-48
2021/07/08 01:46:04;;;;;;;8.38;6.15;;;;;;;-144.13;100.00;64086.75;5022863;28;20029;-49
2021/07/08 01:48:29;;;;;;;12.18;6.40;;;;;;;-144.13;100.00;64086.75;5020442;28;20049;-47
2021/07/08 01:50:55;;;;;;;8.82;6.22;;;;;;;-144.13;100.00;64086.75;5019491;28;20111;-48
2021/07/08 01:53:20;;;;;;;9.93;6.47;;;;;;;-144.13;100.00;64086.75;5017575;28;20484;-47
2021/07/08 01:55:46;;;;;;;9.38;5.72;;;;;;;-144.13;100.00;64086.75;5022296;28;20057;-48
2021/07/08 01:58:11;;;;;;;8.25;5.47;;;;;;;-144.13;100.00;64086.75;5024049;28;20029;-47
2021/07/08 02:00:37;;;;;;;8.00;5.78;;;;;;;-144.13;100.00;64086.75;5022216;28;20032;-47
2021/07/08 02:03:03;;;;;;;10.90;5.72;;;;;;;-144.13;100.00;64086.75;5014137;28;20030;-47
2021/07/08 02:05:28;;;;;;;6.88;4.95;;;;;;;-144.13;100.00;64086.75;5023509;28;20261;-47
2021/07/08 02:07:53;;;;;;;5.95;5.13;;;;;;;-144.13;100.00;64086.75;5018202;28;20040;-49
2021/07/08 02:10:20;;;;;;;6.82;5.50;;;;;;;-144.13;100.00;64086.75;5021318;28;20021;-47
2021/07/08 02:12:47;;;;;;;9.23;6.18;;;;;;;-144.13;100.00;64086.75;5021763;28;20042;-47
2021/07/08 02:15:14;;;;;;;8.38;5.75;;;;;;;-144.13;100.00;64086.75;5022923;28;20036;-46
2021/07/08 02:17:40;;;;;;;5.47;4.55;;;;;;;-144.13;100.00;64086.75;5022457;28;20096;-47
2021/07/08 02:20:08;;;;;;;5.97;4.80;;;;;;;-144.13;100.00;64086.75;5020566;28;20078;-46
2021/07/08 02:22:33;;;;;;;7.60;6.75;;;;;;;-144.13;100.00;64086.75;5019833;28;21215;-47
2021/07/08 02:25:00;;;;;;;9.50;6.07;;;;;;;-144.13;100.00;64086.75;5017842;28;20060;-47
2021/07/08 02:27:26;;;;;;;7.88;5.18;;;;;;;-144.13;100.00;64086.75;5020386;28;20430;-47
2021/07/08 02:29:51;;;;;;;5.57;4.43;;;;;;;-144.13;100.00;64086.75;5022233;28;20131;-47
2021/07/08 02:32:17;;;;;;;6.20;4.68;;;;;;;-144.13;100.00;64086.75;5026713;23;20056;-86
2021/07/08 02:34:43;;;;;;;7.88;5.47;;;;;;;-144.13;100.00;64086.75;5030658;28;20037;-85
2021/07/08 02:37:09;;;;;;;9.80;5.45;;;;;;;-144.13;100.00;64086.75;5030931;28;20021;-86
2021/07/08 02:39:35;;;;;;;7.25;5.03;;;;;;;-144.13;100.00;64086.75;5036911;28;20635;-85
2021/07/08 02:42:01;;;;;;;12.88;6.55;;;;;;;-144.13;100.00;64086.75;5031161;28;20364;-85
2021/07/08 02:44:26;;;;;;;9.98;6.30;;;;;;;-144.13;100.00;64086.75;5029652;28;20032;-86
2021/07/08 02:46:52;;;;;;;7.60;5.32;;;;;;;-144.13;100.00;64086.75;5045451;28;20025;-85
2021/07/08 02:49:18;;;;;;;10.60;5.75;;;;;;;-144.13;100.00;64086.75;5036964;28;20499;-85
2021/07/08 02:51:44;;;;;;;6.00;4.95;;;;;;;-144.13;100.00;64086.75;5030790;28;20033;-86
2021/07/08 02:54:22;;;;;;;6.78;5.30;;;;;;;-144.13;100.00;64086.75;5029975;28;20112;-86
2021/07/08 02:56:47;;;;;;;9.52;4.90;;;;;;;-144.13;100.00;64086.75;5030838;28;20526;-87
2021/07/08 02:59:13;;;;;;;11.05;5.22;;;;;;;-144.13;100.00;64086.75;5031371;28;20025;-86
2021/07/08 03:01:38;;;;;;;7.60;5.53;;;;;;;-144.13;100.00;64086.75;5033905;28;20029;-86
2021/07/08 03:04:05;;;;;;;8.30;6.18;;;;;;;-144.13;100.00;64086.75;5030254;28;20025;-85
2021/07/08 03:06:33;;;;;;;7.45;5.72;;;;;;;-144.13;100.00;64086.75;5037010;28;20021;-85
2021/07/08 03:08:58;;;;;;;9.95;5.40;;;;;;;-144.13;100.00;64086.75;5037614;28;20117;-87
2021/07/08 03:11:24;;;;;;;8.68;5.15;;;;;;;-144.13;100.00;64086.75;5037305;28;20510;-86
2021/07/08 03:13:49;;;;;;;6.00;5.40;;;;;;;-144.13;100.00;64086.75;5035091;28;20036;-86
2021/07/08 03:16:15;;;;;;;8.00;4.78;;;;;;;-144.13;100.00;64086.75;5034743;28;20463;-85
2021/07/08 03:18:40;;;;;;;5.82;4.45;;;;;;;-144.13;100.00;64086.75;5037228;28;20036;-85
2021/07/08 03:21:06;;;;;;;10.02;5.28;;;;;;;-144.13;100.00;64086.75;5037255;28;20044;-85
2021/07/08 03:23:34;;;;;;;9.73;6.10;;;;;;;-144.13;100.00;64086.75;5032434;28;20029;-85
2021/07/08 03:26:00;;;;;;;13.25;6.38;;;;;;;-144.13;100.00;64086.75;5034387;28;20021;-85
2021/07/08 03:28:26;;;;;;;7.20;5.15;;;;;;;-144.13;100.00;64086.75;5032451;28;20033;-85
2021/07/08 03:30:51;;;;;;;10.38;5.85;;;;;;;-144.13;100.00;64086.75;5039840;28;20025;-86
2021/07/08 03:33:17;;;;;;;5.72;5.13;;;;;;;-144.13;100.00;64086.75;5025706;28;20036;-87
2021/07/08 03:35:42;;;;;;;8.02;6.80;;;;;;;-144.13;100.00;64086.75;5027194;28;20047;-85
2021/07/08 03:38:08;;;;;;;12.13;8.00;;;;;;;-144.13;100.00;64086.75;5035808;28;20056;-85
2021/07/08 03:40:34;;;;;;;11.02;8.50;;;;;;;-144.13;100.00;64086.75;5037446;28;20170;-87
2021/07/08 03:43:00;;;;;;;10.45;8.43;;;;;;;-144.13;100.00;64086.75;5027252;28;20516;-86
2021/07/08 03:45:26;;;;;;;13.43;8.30;;;;;;;-144.13;100.00;64086.75;5034702;28;20025;-86
2021/07/08 03:47:53;;;;;;;10.70;7.07;;;;;;;-144.13;100.00;64086.75;5036043;28;20442;-86
2021/07/08 03:50:19;;;;;;;14.93;9.35;;;;;;;-144.13;100.00;64086.75;5035626;28;20107;-85
2021/07/08 03:52:45;;;;;;;8.50;7.25;;;;;;;-144.13;100.00;64086.75;5048363;28;20021;-85
2021/07/08 03:55:16;;;;;;;8.88;6.43;;;;;;;-144.13;100.00;64086.75;5041778;28;20491;-86
2021/07/08 03:57:55;;;;;;;14.23;7.13;;;;;;;-144.13;100.00;64086.75;5032868;28;20064;-85
2021/07/08 04:00:33;;;;;;;11.82;7.20;;;;;;;-144.13;100.00;64086.75;5034739;28;20029;-86
2021/07/08 04:03:01;;;;;;;10.43;6.93;;;;;;;-144.13;100.00;64086.75;5038418;28;20118;-86
2021/07/08 04:05:26;;;;;;;9.90;6.68;;;;;;;-144.13;100.00;64086.75;5034416;28;20083;-86
2021/07/08 04:07:52;;;;;;;11.73;7.20;;;;;;;-144.13;100.00;64086.75;5035032;28;20116;-86
2021/07/08 04:10:18;;;;;;;11.00;7.85;;;;;;;-144.13;100.00;64086.75;5037765;28;20048;-86
2021/07/08 04:12:44;;;;;;;14.30;6.90;;;;;;;-144.13;100.00;64086.75;5036076;28;20056;-85
2021/07/08 04:15:10;;;;;;;8.95;6.47;;;;;;;-144.13;100.00;64086.75;5030447;28;20031;-85
2021/07/08 04:17:36;;;;;;;9.63;6.40;;;;;;;-144.13;100.00;64086.75;5033464;28;20028;-86
2021/07/08 04:20:05;;;;;;;11.60;6.90;;;;;;;-144.13;100.00;64086.75;5040356;28;20028;-85
2021/07/08 04:22:30;;;;;;;10.57;6.88;;;;;;;-144.13;100.00;64086.75;5034269;28;20044;-85
2021/07/08 04:24:56;;;;;;;15.80;7.95;;;;;;;-144.13;100.00;64086.75;5034950;28;20028;-85
2021/07/08 04:27:22;;;;;;;11.73;7.70;;;;;;;-144.13;100.00;64086.75;5025568;28;20033;-85
2021/07/08 04:29:47;;;;;;;14.82;8.43;;;;;;;-144.13;100.00;64086.75;5026007;28;20026;-85
2021/07/08 04:32:13;;;;;;;14.82;8.13;;;;;;;-144.13;100.00;64086.75;5036635;28;20115;-85
2021/07/08 04:34:40;;;;;;;14.52;7.78;;;;;;;-144.13;100.00;64086.75;5033230;28;20017;-85
2021/07/08 04:37:05;;;;;;;14.57;8.40;;;;;;;-144.13;100.00;64086.75;5034103;28;20104;-84
2021/07/08 04:39:31;;;;;;;10.13;7.43;;;;;;;-144.13;100.00;64086.75;5037079;28;20452;-85
2021/07/08 04:41:56;;;;;;;14.40;8.00;;;;;;;-144.13;100.00;64086.75;5038930;28;20040;-86
2021/07/08 04:44:22;;;;;;;14.32;7.30;;;;;;;-144.13;100.00;64086.75;5027398;28;20032;-85
2021/07/08 04:46:47;;;;;;;13.85;8.18;;;;;;;-144.13;100.00;64086.75;5035691;28;20021;-85
2021/07/08 04:49:13;;;;;;;16.77;8.18;;;;;;;-144.13;100.00;64086.75;5033189;28;20036;-85
2021/07/08 04:51:39;;;;;;;9.85;7.07;;;;;;;-144.13;100.00;64086.75;5042528;28;20033;-85
2021/07/08 04:54:25;;;;;;;11.80;6.82;;;;;;;-144.13;100.00;64086.75;5033213;28;20028;-87
2021/07/08 04:56:50;;;;;;;10.45;6.82;;;;;;;-144.13;100.00;64086.75;5034056;28;20040;-85
2021/07/08 04:59:15;;;;;;;10.48;6.80;;;;;;;-144.13;100.00;64086.75;5036056;28;20112;-85
2021/07/08 05:01:41;;;;;;;9.90;7.00;;;;;;;-144.13;100.00;64086.75;5036958;28;20037;-85
2021/07/08 05:04:06;;;;;;;11.85;5.90;;;;;;;-144.13;100.00;64086.75;5034143;28;20075;-86
2021/07/08 05:06:33;;;;;;;8.13;5.60;;;;;;;-144.13;100.00;64086.75;5032635;28;20625;-85
2021/07/08 05:08:58;;;;;;;6.18;5.10;;;;;;;-144.13;100.00;64086.75;5046355;28;20670;-86
2021/07/08 05:11:24;;;;;;;5.97;4.53;;;;;;;-144.13;100.00;64086.75;5033542;28;20368;-86
2021/07/08 05:13:49;;;;;;;5.30;4.47;;;;;;;-144.13;100.00;64086.75;5050040;28;20438;-86
2021/07/08 05:16:15;;;;;;;5.13;4.25;;;;;;;-144.13;100.00;64086.75;5040029;28;20615;-86
2021/07/08 05:18:45;;;;;;;6.18;4.53;;;;;;;-144.13;100.00;64086.75;5034568;28;20033;-86
2021/07/08 05:21:11;;;;;;;7.00;4.68;;;;;;;-144.13;100.00;64086.75;5033978;28;20033;-86
2021/07/08 05:23:39;;;;;;;5.85;4.63;;;;;;;-144.13;100.00;64086.75;5037389;28;20133;-85
2021/07/08 05:26:05;;;;;;;4.88;4.38;;;;;;;-144.13;100.00;64086.75;5025342;28;20017;-85
2021/07/08 05:28:32;;;;;;;6.40;4.47;;;;;;;-144.13;100.00;64086.75;5029149;28;20855;-86
2021/07/08 05:30:57;;;;;;;5.82;4.18;;;;;;;-144.13;100.00;64086.75;5035428;28;20028;-85
2021/07/08 05:33:24;;;;;;;4.32;3.80;;;;;;;-144.13;100.00;64086.75;5029391;28;20030;-85
2021/07/08 05:35:50;;;;;;;3.78;3.33;;;;;;;-144.13;100.00;64086.75;5032597;28;20055;-86
2021/07/08 05:38:15;;;;;;;5.10;3.50;;;;;;;-144.13;100.00;64086.75;5033475;28;20056;-84
2021/07/08 05:40:41;;;;;;;4.30;3.60;;;;;;;-144.13;100.00;64086.75;5033006;28;20586;-86
2021/07/08 05:43:07;;;;;;;3.60;3.30;;;;;;;-144.13;100.00;64086.75;5030304;28;20033;-85
2021/07/08 05:45:33;;;;;;;5.57;2.70;;;;;;;-144.13;100.00;64086.75;5034380;28;20025;-85
2021/07/08 05:47:59;;;;;;;5.03;2.65;;;;;;;-144.13;100.00;64086.75;5030948;28;20691;-84
2021/07/08 05:50:25;;;;;;;4.32;3.00;;;;;;;-144.13;100.00;64086.75;5031291;28;20029;-85
2021/07/08 05:52:51;;;;;;;3.70;3.03;;;;;;;-144.13;100.00;64086.75;5036485;28;20104;-85
2021/07/08 05:55:17;;;;;;;4.80;3.00;;;;;;;-144.13;100.00;64086.75;5041617;28;20048;-85
2021/07/08 05:57:48;;;;;;;4.63;2.80;;;;;;;-144.13;100.00;64086.75;5036846;28;20033;-84
2021/07/08 06:00:16;;;;;;;4.45;2.30;;;;;;;-144.13;100.00;64086.75;5030773;28;20045;-86
2021/07/08 06:02:42;;;;;;;2.92;2.05;;;;;;;-144.13;100.00;64086.75;5049545;28;20048;-85
2021/07/08 06:05:08;;;;;;;2.55;2.05;;;;;;;-144.13;100.00;64086.75;5043346;28;20472;-85
2021/07/08 06:07:34;;;;;;;3.10;2.20;;;;;;;-144.13;100.00;64086.75;5042652;28;20041;-85
2021/07/08 06:09:59;;;;;;;5.28;2.22;;;;;;;-144.13;100.00;64086.75;5030407;28;20040;-86
2021/07/08 06:12:25;;;;;;;4.15;1.70;;;;;;;-144.13;100.00;64086.75;5033872;28;20017;-86
2021/07/08 06:14:51;;;;;;;3.72;1.70;;;;;;;-144.13;100.00;64086.75;5032770;28;20482;-85
2021/07/08 06:17:16;;;;;;;4.70;1.98;;;;;;;-144.13;100.00;64086.75;5030369;28;20025;-86
2021/07/08 06:19:42;;;;;;;2.38;1.63;;;;;;;-144.13;100.00;64086.75;5029515;28;20509;-85
2021/07/08 06:22:07;;;;;;;4.38;1.70;;;;;;;-144.13;100.00;64086.75;5032658;28;20043;-85
2021/07/08 06:24:33;;;;;;;5.30;1.80;;;;;;;-144.13;100.00;64086.75;5034542;28;20030;-85
2021/07/08 06:26:58;;;;;;;4.05;1.90;;;;;;;-144.13;100.00;64086.75;5030531;28;20029;-85
2021/07/08 06:29:24;;;;;;;7.45;1.95;;;;;;;-144.13;100.00;64086.75;5033023;28;20047;-85
2021/07/08 06:31:50;;;;;;;4.15;1.95;;;;;;;-144.13;100.00;64086.75;5031260;28;20033;-86
2021/07/08 06:34:15;;;;;;;6.30;2.30;;;;;;;-144.13;100.00;64086.75;5030657;28;20017;-85
2021/07/08 06:36:41;;;;;;;5.07;2.20;;;;;;;-144.13;100.00;64086.75;5032358;28;20075;-85
2021/07/08 06:39:08;;;;;;;4.22;1.75;;;;;;;-144.13;100.00;64086.75;5031290;28;20048;-84
2021/07/08 06:41:36;;;;;;;4.53;2.35;;;;;;;-144.13;100.00;64086.75;5032562;28;20021;-86
2021/07/08 06:44:02;;;;;;;3.45;1.92;;;;;;;-144.13;100.00;64086.75;5049985;28;20017;-85
2021/07/08 06:46:29;;;;;;;3.30;1.60;;;;;;;-144.13;100.00;64086.75;5038295;28;20013;-86
2021/07/08 06:48:55;;;;;;;4.85;1.98;;;;;;;-144.13;100.00;64086.75;5037052;28;20039;-85
2021/07/08 06:51:21;;;;;;;3.13;2.08;;;;;;;-144.13;100.00;64086.75;5050618;28;20033;-85
2021/07/08 06:53:46;;;;;;;4.43;2.00;;;;;;;-144.13;100.00;64086.75;5035600;28;20036;-86
2021/07/08 06:56:12;;;;;;;3.97;1.92;;;;;;;-144.13;100.00;64086.75;5037258;28;20021;-85
2021/07/08 06:58:38;;;;;;;5.47;1.92;;;;;;;-144.13;100.00;64086.75;5049904;28;20029;-84
2021/07/08 07:01:04;;;;;;;2.47;1.80;;;;;;;-144.13;100.00;64086.75;5053883;28;20035;-84
2021/07/08 07:03:34;;;;;;;6.00;2.00;;;;;;;-144.13;100.00;64086.75;5031790;28;20036;-84
2021/07/08 07:06:00;;;;;;;3.53;2.10;;;;;;;-144.13;100.00;64086.75;5053168;28;20024;-84
2021/07/08 07:08:25;;;;;;;3.55;1.80;;;;;;;-144.13;100.00;64086.75;5037014;28;20025;-84
2021/07/08 07:10:50;;;;;;;5.03;1.80;;;;;;;-144.13;100.00;64086.75;5032935;28;20025;-85
2021/07/08 07:13:16;;;;;;;3.13;1.83;;;;;;;-144.13;100.00;64086.75;5025662;28;20128;-84
2021/07/08 07:15:42;;;;;;;4.38;1.80;;;;;;;-144.13;100.00;64086.75;5033605;28;20029;-83
2021/07/08 07:18:07;;;;;;;5.13;2.38;;;;;;;-144.13;100.00;64086.75;5032308;28;20490;-84
2021/07/08 07:20:33;;;;;;;3.72;2.13;;;;;;;-144.13;100.00;64086.75;5021375;28;20885;-83
2021/07/08 07:22:59;;;;;;;3.88;1.77;;;;;;;-144.13;100.00;64086.75;5026344;28;20052;-83
2021/07/08 07:25:27;;;;;;;3.25;2.08;;;;;;;-144.13;100.00;64086.75;5030356;28;20678;-84
2021/07/08 07:27:54;;;;;;;2.13;1.90;;;;;;;-144.13;100.00;64086.75;5036956;28;20028;-83
2021/07/08 07:30:22;;;;;;;4.85;2.08;;;;;;;-144.13;100.00;64086.75;5052131;28;20078;-83
2021/07/08 07:32:49;;;;;;;5.18;2.00;;;;;;;-144.13;100.00;64086.75;5030581;28;20020;-84
2021/07/08 07:35:15;;;;;;;2.30;2.03;;;;;;;-144.13;100.00;64086.75;5033006;28;20390;-84
2021/07/08 07:37:41;;;;;;;5.20;2.10;;;;;;;-144.13;100.00;64086.75;5047153;28;20043;-85
2021/07/08 07:40:08;;;;;;;4.60;1.85;;;;;;;-144.13;100.00;64086.75;5041792;28;20020;-84
2021/07/08 07:42:34;;;;;;;3.92;1.80;;;;;;;-144.13;100.00;64086.75;5036860;28;20067;-84
2021/07/08 07:45:00;;;;;;;2.78;1.90;;;;;;;-144.13;100.00;64086.75;5028501;28;20026;-84
2021/07/08 07:47:29;;;;;;;3.78;2.03;;;;;;;-144.13;100.00;64086.75;5036442;28;20399;-84
2021/07/08 07:49:55;;;;;;;1.95;1.80;;;;;;;-144.13;100.00;64086.75;5047890;28;20495;-85
2021/07/08 07:52:21;;;;;;;2.85;1.65;;;;;;;-144.13;100.00;64086.75;5034378;28;20031;-84
2021/07/08 07:54:47;;;;;;;3.00;1.83;;;;;;;-144.13;100.00;64086.75;5047910;28;20067;-84
2021/07/08 07:57:12;;;;;;;3.88;1.65;;;;;;;-144.13;100.00;64086.75;5030605;28;20049;-84
2021/07/08 07:59:39;;;;;;;2.75;1.83;;;;;;;-144.13;100.00;64086.75;5034658;28;20029;-83
2021/07/08 08:02:10;;;;;;;3.38;1.60;;;;;;;-144.13;100.00;64086.75;5047519;28;20652;-84
2021/07/08 08:10:28;;;;;;;3.25;1.65;;;;;;;-144.13;100.00;64086.75;5048946;28;20218;-83
2021/07/08 08:12:54;;;;;;;6.00;1.50;;;;;;;-144.13;100.00;64086.75;5020288;28;20059;-83
2021/07/08 08:15:19;;;;;;;5.38;1.75;;;;;;;-144.13;100.00;64086.75;5032296;28;20108;-83
2021/07/08 08:17:47;;;;;;;2.60;1.30;;;;;;;-144.13;100.00;64086.75;5033475;28;20024;-83
2021/07/08 08:20:14;;;;;;;4.88;1.58;;;;;;;-144.13;100.00;64086.75;5029716;28;20984;-83
2021/07/08 08:22:41;;;;;;;8.00;2.00;;;;;;;-144.13;100.00;64086.75;5033073;28;20121;-83
2021/07/08 08:25:08;;;;;;;3.03;1.63;;;;;;;-144.13;100.00;64086.75;5028209;28;20714;-83
2021/07/08 08:27:34;;;;;;;6.18;1.58;;;;;;;-144.13;100.00;64086.75;5029331;28;20025;-83
2021/07/08 08:29:59;;;;;;;3.10;1.45;;;;;;;-144.13;100.00;64086.75;5035367;28;20097;-84
2021/07/08 08:32:25;;;;;;;1.65;1.13;;;;;;;-144.13;100.00;64086.75;5045165;28;20021;-83
2021/07/08 08:34:50;;;;;;;3.05;1.40;;;;;;;-144.13;100.00;64086.75;5025007;28;20044;-84
2021/07/08 08:37:16;;;;;;;4.88;1.65;;;;;;;-144.13;100.00;64086.75;5028055;28;20025;-83
2021/07/08 08:39:41;;;;;;;3.70;1.45;;;;;;;-144.13;100.00;64086.75;5022316;28;20039;-84
2021/07/08 08:42:10;;;;;;;2.35;1.35;;;;;;;-144.13;100.00;64086.75;5030430;28;20033;-85
2021/07/08 08:44:37;;;;;;;4.40;1.70;;;;;;;-144.13;100.00;64086.75;5027340;28;20017;-84
2021/07/08 08:47:07;;;;;;;4.00;1.77;;;;;;;-144.13;100.00;64086.75;5031864;28;20035;-85
2021/07/08 08:49:35;;;;;;;4.07;1.58;;;;;;;-144.13;100.00;64086.75;5025588;28;20035;-84
2021/07/08 08:52:01;;;;;;;4.40;1.60;;;;;;;-144.13;100.00;64086.75;5033095;28;20025;-84
2021/07/08 08:54:27;;;;;;;3.40;1.52;;;;;;;-144.13;100.00;64086.75;5022496;28;20127;-83
2021/07/08 08:56:52;;;;;;;4.22;1.50;;;;;;;-144.13;100.00;64086.75;5035988;28;20115;-84
2021/07/08 08:59:17;;;;;;;3.28;1.50;;;;;;;-144.13;100.00;64086.75;5039674;28;20434;-84
2021/07/08 09:01:43;;;;;;;3.22;1.52;;;;;;;-144.13;100.00;64086.75;5033085;28;20025;-84
2021/07/08 09:04:31;;;;;;;2.95;1.60;;;;;;;-144.13;100.00;64086.75;5030608;28;20029;-84
2021/07/08 09:07:28;;;;;;;4.22;1.20;;;;;;;-144.13;100.00;64086.75;5026147;28;20447;-84
2021/07/08 09:10:00;;;;;;;2.60;1.00;;;;;;;-144.13;100.00;64086.75;5043595;28;20029;-84
2021/07/08 09:12:26;;;;;;;4.00;0.90;;;;;;;-144.13;100.00;64086.75;5026700;28;20116;-84
2021/07/08 09:15:13;;;;;;;2.00;1.10;;;;;;;-144.13;100.00;64086.75;5035441;28;20037;-84
2021/07/08 09:17:40;;;;;;;3.25;0.93;;;;;;;-144.13;100.00;64086.75;5050149;28;20075;-83
2021/07/08 09:20:09;;;;;;;3.05;0.80;;;;;;;-144.13;100.00;64086.75;5038300;28;20392;-84
2021/07/08 09:22:35;;;;;;;2.53;1.00;;;;;;;-144.13;100.00;64086.75;5028834;28;20132;-84
2021/07/08 09:25:21;;;;;;;3.72;1.00;;;;;;;-144.13;100.00;64086.75;5032378;28;20456;-84
2021/07/08 09:27:48;;;;;;;1.58;1.02;;;;;;;-144.13;100.00;64086.75;5047222;28;20199;-84
2021/07/08 09:30:25;;;;;;;1.42;0.80;;;;;;;-144.13;100.00;64086.75;5032097;28;20032;-84
2021/07/08 09:32:50;;;;;;;1.90;0.90;;;;;;;-144.13;100.00;64086.75;5047629;28;20525;-84
2021/07/08 09:35:34;;;;;;;1.48;0.70;;;;;;;-144.13;100.00;64086.75;5028820;28;20017;-84
2021/07/08 09:38:10;;;;;;;4.13;1.05;;;;;;;-144.13;100.00;64086.75;5026979;28;20025;-84
2021/07/08 09:40:35;;;;;;;1.60;0.90;;;;;;;-144.13;100.00;64086.75;5040745;28;20025;-84
2021/07/08 09:43:01;;;;;;;4.80;1.00;;;;;;;-144.13;100.00;64086.75;5024847;28;21800;-84
2021/07/08 09:45:27;;;;;;;3.00;0.80;;;;;;;-144.13;100.00;64086.75;5040257;28;20036;-85
2021/07/08 09:48:09;;;;;;;1.05;0.60;;;;;;;-144.13;100.00;64086.75;5019175;28;20036;-84
2021/07/08 09:50:37;;;;;;;1.80;0.90;;;;;;;-144.13;100.00;64086.75;5039312;28;20053;-84
2021/07/08 09:53:06;;;;;;;1.95;0.82;;;;;;;-144.13;100.00;64086.75;5031250;28;20074;-84
2021/07/08 09:56:31;;;;;;;2.38;0.90;;;;;;;-144.13;100.00;64086.75;5036625;28;20032;-84
2021/07/08 09:58:58;;;;;;;4.05;1.10;;;;;;;-144.13;100.00;64086.75;5001056;28;20022;-85
2021/07/08 10:01:27;;;;;;;1.70;0.70;;;;;;;-144.13;100.00;64086.75;4982094;28;20080;-84
2021/07/08 10:03:53;;;;;;;2.42;0.90;;;;;;;-144.13;100.00;64086.75;5012442;28;20041;-84
2021/07/08 10:06:20;;;;;;;1.77;0.80;;;;;;;-144.13;100.00;64086.75;5034409;28;20045;-84
2021/07/08 10:08:47;;;;;;;1.65;0.70;;;;;;;-144.13;100.00;64086.75;5023187;28;20553;-84
2021/07/08 10:11:15;;;;;;;4.78;0.93;;;;;;;-144.13;100.00;64086.75;5018970;28;20066;-84
2021/07/08 10:13:43;;;;;;;1.55;0.82;;;;;;;-144.13;100.00;64086.75;5025396;28;20399;-84
2021/07/08 10:16:12;;;;;;;1.25;0.85;;;;;;;-144.13;100.00;64086.75;5027787;28;20584;-84
2021/07/08 10:18:41;;;;;;;2.45;1.00;;;;;;;-144.13;100.00;64086.75;5026918;28;20124;-84
2021/07/08 10:21:08;;;;;;;2.28;1.15;;;;;;;-144.13;100.00;64086.75;5029123;28;20028;-84
2021/07/08 10:23:36;;;;;;;4.90;0.98;;;;;;;-144.13;100.00;64086.75;5023945;28;20029;-84
2021/07/08 10:26:03;;;;;;;2.85;0.95;;;;;;;-144.13;100.00;64086.75;5024330;28;20021;-84
2021/07/08 10:28:32;;;;;;;1.67;0.85;;;;;;;-144.13;100.00;64086.75;5024363;28;20067;-84
2021/07/08 10:30:58;;;;;;;1.35;1.15;;;;;;;-144.13;100.00;64086.75;5027291;28;20028;-84
2021/07/08 10:33:24;;;;;;;2.30;1.50;;;;;;;-144.13;100.00;64086.75;5027440;28;20174;-84
2021/07/08 10:35:54;;;;;;;0.82;0.82;;;;;;;-144.13;100.00;64086.75;5024229;28;20521;-84
2021/07/08 10:38:32;;;;;;;2.25;1.10;;;;;;;-144.13;100.00;64086.75;5028758;28;20554;-84
2021/07/08 10:41:11;;;;;;;2.97;1.10;;;;;;;-144.13;100.00;64086.75;5028377;28;20068;-84
2021/07/08 10:43:36;;;;;;;1.73;0.82;;;;;;;-144.13;100.00;64086.75;5025068;28;20517;-84
2021/07/08 10:46:05;;;;;;;3.38;1.10;;;;;;;-144.13;100.00;64086.75;5036081;28;20037;-84
2021/07/08 10:48:44;;;;;;;6.80;1.00;;;;;;;-144.13;100.00;64086.75;5024385;28;20128;-84
2021/07/08 10:51:16;;;;;;;4.00;1.10;;;;;;;-144.13;100.00;64086.75;5023135;28;20021;-84
2021/07/08 10:53:42;;;;;;;2.45;0.70;;;;;;;-144.13;100.00;64086.75;5018196;28;20021;-84
2021/07/08 10:56:12;;;;;;;5.65;0.95;;;;;;;-144.13;100.00;64086.75;5035254;28;20018;-83
2021/07/08 10:58:50;;;;;;;1.00;0.70;;;;;;;-144.13;100.00;64086.75;5017211;28;20596;-84
2021/07/08 11:01:22;;;;;;;4.20;0.98;;;;;;;-144.13;100.00;64086.75;5021142;28;20080;-84
2021/07/08 11:03:54;;;;;;;4.05;1.00;;;;;;;-144.13;100.00;64086.75;5038750;28;20950;-84
2021/07/08 11:06:39;;;;;;;1.42;0.70;;;;;;;-144.13;100.00;64086.75;5023702;28;20021;-84
2021/07/08 11:09:17;;;;;;;1.75;0.77;;;;;;;-144.13;100.00;64086.75;5025930;28;20061;-84
2021/07/08 11:11:45;;;;;;;1.70;0.88;;;;;;;-144.13;100.00;64086.75;5017085;28;20029;-84
2021/07/08 11:14:12;;;;;;;1.55;0.75;;;;;;;-144.13;100.00;64086.75;5021061;28;20510;-84